createdAt,value
2022-08-07T00:02:37.009Z,54.56
2022-08-07T00:05:04.088Z,54.69
2022-08-07T00:07:41.123Z,54.86
2022-08-07T00:10:27.272Z,54.72
2022-08-07T00:13:23.962Z,55.01
2022-08-07T00:15:55.992Z,55.02
2022-08-07T00:18:27.934Z,55.45
2022-08-07T00:21:07.908Z,55.74
2022-08-07T00:23:53.287Z,56.42
2022-08-07T00:26:49.504Z,57.25
2022-08-07T00:29:11.356Z,57.30
2022-08-07T00:31:42.181Z,57.59
2022-08-07T00:34:10.041Z,57.95
2022-08-07T00:36:43.211Z,58.08
2022-08-07T00:39:12.825Z,58.68
2022-08-07T00:42:02.107Z,59.08
2022-08-07T00:44:34.020Z,59.28
2022-08-07T00:47:03.053Z,60.09
2022-08-07T00:50:19.693Z,60.42
2022-08-07T00:52:24.690Z,60.67
2022-08-07T00:54:53.451Z,61.27
2022-08-07T00:57:28.349Z,62.14
2022-08-07T01:00:02.376Z,62.96
2022-08-07T01:02:30.356Z,63.66
2022-08-07T01:04:59.981Z,64.28
2022-08-07T01:07:29.478Z,64.35
2022-08-07T01:10:05.754Z,64.40
2022-08-07T01:12:53.417Z,64.84
2022-08-07T01:16:00.869Z,65.00
2022-08-07T01:18:16.929Z,65.10
2022-08-07T01:20:57.081Z,65.28
2022-08-07T01:23:36.793Z,65.79
2022-08-07T01:26:12.166Z,65.85
2022-08-07T01:28:45.912Z,65.84
2022-08-07T01:31:20.826Z,66.28
2022-08-07T01:33:55.452Z,66.83
2022-08-07T01:36:33.766Z,67.00
2022-08-07T01:39:10.223Z,66.92
2022-08-07T01:42:07.493Z,67.46
2022-08-07T01:44:32.628Z,67.69
2022-08-07T01:47:14.651Z,68.22
2022-08-07T01:49:53.659Z,68.29
2022-08-07T01:52:26.632Z,68.63
2022-08-07T01:54:56.441Z,68.71
2022-08-07T01:58:01.652Z,68.73
2022-08-07T02:00:28.893Z,69.63
2022-08-07T02:03:18.674Z,70.04
2022-08-07T02:06:02.563Z,70.13
2022-08-07T02:08:54.418Z,70.79
2022-08-07T02:11:31.027Z,71.00
2022-08-07T02:14:35.888Z,70.96
2022-08-07T02:17:04.013Z,70.87
2022-08-07T02:20:04.472Z,71.46
2022-08-07T02:22:26.212Z,71.80
2022-08-07T02:24:57.544Z,72.74
2022-08-07T02:27:34.552Z,74.07
2022-08-07T02:30:06.384Z,74.29
2022-08-07T02:32:38.736Z,74.53
2022-08-07T02:35:11.850Z,74.46
2022-08-07T02:37:49.781Z,74.94
2022-08-07T02:40:30.683Z,75.16
2022-08-07T02:43:08.016Z,75.33
2022-08-07T02:46:00.352Z,75.56
2022-08-07T02:48:29.803Z,75.97
2022-08-07T02:51:03.625Z,76.60
2022-08-07T02:53:38.490Z,77.51
2022-08-07T02:56:21.255Z,78.77
2022-08-07T02:58:55.381Z,78.71
2022-08-07T03:01:35.261Z,79.30
2022-08-07T03:04:12.566Z,79.49
2022-08-07T03:06:44.564Z,79.51
2022-08-07T03:09:14.624Z,80.26
2022-08-07T03:12:04.186Z,80.41
2022-08-07T03:14:36.319Z,80.45
2022-08-07T03:17:05.677Z,81.13
2022-08-07T03:19:37.634Z,81.17
2022-08-07T03:22:18.690Z,81.44
2022-08-07T03:24:48.053Z,82.01
2022-08-07T03:27:30.124Z,82.16
2022-08-07T03:30:03.749Z,82.34
2022-08-07T03:32:58.263Z,82.57
2022-08-07T03:35:37.907Z,82.39
2022-08-07T03:38:13.683Z,82.61
2022-08-07T03:40:44.275Z,81.97
2022-08-07T03:43:15.500Z,81.65
2022-08-07T03:45:51.659Z,81.15
2022-08-07T03:48:24.348Z,81.16
2022-08-07T03:50:57.666Z,81.34
2022-08-07T03:54:01.837Z,81.84
2022-08-07T03:56:33.092Z,82.08
2022-08-07T03:59:12.711Z,82.55
2022-08-07T04:01:46.248Z,82.33
2022-08-07T04:04:18.359Z,82.34
2022-08-07T04:06:51.853Z,82.72
2022-08-07T04:09:23.348Z,83.11
2022-08-07T04:12:24.265Z,83.50
2022-08-07T04:14:47.733Z,83.41
2022-08-07T04:17:20.780Z,83.46
2022-08-07T04:19:54.427Z,83.47
2022-08-07T04:22:29.125Z,83.56
2022-08-07T04:25:01.346Z,83.07
2022-08-07T04:27:35.987Z,83.38
2022-08-07T04:30:21.455Z,83.44
2022-08-07T04:33:08.651Z,83.05
2022-08-07T04:35:39.217Z,82.18
2022-08-07T04:38:13.413Z,82.17
2022-08-07T04:40:52.124Z,81.94
2022-08-07T04:44:12.690Z,81.09
2022-08-07T04:47:09.508Z,80.69
2022-08-07T04:50:04.889Z,81.99
2022-08-07T04:52:58.841Z,81.01
2022-08-07T04:58:13.159Z,80.98
2022-08-07T05:01:59.434Z,82.22
2022-08-07T05:04:59.790Z,82.88
2022-08-07T05:07:36.843Z,83.70
2022-08-07T05:10:14.119Z,83.70
2022-08-07T05:13:09.861Z,84.02
2022-08-07T05:15:53.641Z,83.39
2022-08-07T05:18:35.484Z,82.56
2022-08-07T05:21:05.871Z,82.88
2022-08-07T05:23:45.602Z,83.19
2022-08-07T05:26:23.824Z,82.24
2022-08-07T05:28:59.031Z,81.53
2022-08-07T05:31:38.294Z,80.77
2022-08-07T05:34:12.378Z,81.87
2022-08-07T05:36:53.190Z,77.92
2022-08-07T05:40:16.723Z,76.67
2022-08-07T05:42:33.202Z,75.27
2022-08-07T05:45:25.703Z,73.20
2022-08-07T05:48:02.095Z,71.16
2022-08-07T05:50:35.597Z,68.97
2022-08-07T05:53:07.485Z,68.22
2022-08-07T05:56:03.004Z,67.29
2022-08-07T05:58:36.770Z,67.07
2022-08-07T06:01:10.836Z,66.57
2022-08-07T06:03:56.332Z,67.13
2022-08-07T06:06:29.979Z,67.35
2022-08-07T06:09:05.592Z,66.99
2022-08-07T06:11:38.553Z,66.43
2022-08-07T06:14:11.478Z,67.19
2022-08-07T06:16:56.210Z,65.30
2022-08-07T06:19:57.633Z,66.25
2022-08-07T06:22:24.145Z,66.01
2022-08-07T06:25:10.793Z,65.07
2022-08-07T06:27:44.403Z,64.93
2022-08-07T06:30:35.597Z,64.83
2022-08-07T06:33:09.975Z,64.39
2022-08-07T06:36:06.108Z,64.81
2022-08-07T06:38:35.423Z,62.60
2022-08-07T06:41:13.016Z,63.10
2022-08-07T06:43:46.304Z,62.17
2022-08-07T06:46:35.343Z,61.90
2022-08-07T06:49:05.238Z,62.12
2022-08-07T06:51:49.300Z,59.72
2022-08-07T06:55:34.450Z,59.64
2022-08-07T06:57:09.397Z,60.36
2022-08-07T07:00:12.872Z,59.25
2022-08-07T07:02:53.708Z,56.73
2022-08-07T07:06:05.676Z,57.56
2022-08-07T07:08:12.655Z,56.63
2022-08-07T07:10:47.252Z,55.36
2022-08-07T07:13:56.672Z,55.07
2022-08-07T07:16:22.123Z,55.34
2022-08-07T07:18:59.503Z,55.51
2022-08-07T07:22:05.391Z,54.25
2022-08-07T07:24:24.264Z,54.90
2022-08-07T07:26:54.686Z,54.13
2022-08-07T07:29:56.712Z,53.59
2022-08-07T07:32:18.887Z,53.09
2022-08-07T07:34:49.200Z,52.24
2022-08-07T07:37:22.082Z,51.88
2022-08-07T07:40:10.296Z,52.52
2022-08-07T07:42:47.099Z,52.02
2022-08-07T07:46:35.541Z,51.62
2022-08-07T07:48:13.123Z,50.38
2022-08-07T07:51:03.462Z,48.99
2022-08-07T07:53:51.916Z,47.58
2022-08-07T07:56:29.958Z,46.52
2022-08-07T07:59:00.480Z,46.33
2022-08-07T08:02:02.944Z,45.88
2022-08-07T08:04:25.639Z,43.99
2022-08-07T08:06:55.331Z,42.55
2022-08-07T08:09:29.439Z,42.29
2022-08-07T08:12:01.569Z,41.65
2022-08-07T08:14:36.079Z,41.02
2022-08-07T08:18:36.531Z,38.93
2022-08-07T08:20:18.529Z,38.86
2022-08-07T08:23:10.116Z,37.13
2022-08-07T08:26:04.575Z,35.58
2022-08-07T08:28:39.190Z,34.13
2022-08-07T08:31:30.284Z,33.82
2022-08-07T08:34:12.471Z,31.93
2022-08-07T08:36:57.718Z,32.22
2022-08-07T08:39:39.581Z,33.71
2022-08-07T08:42:29.889Z,32.75
2022-08-07T08:45:04.207Z,31.42
2022-08-07T08:47:56.046Z,30.60
2022-08-07T08:50:39.652Z,30.62
2022-08-07T08:53:19.680Z,32.59
2022-08-07T08:55:58.874Z,32.62
2022-08-07T08:58:41.769Z,31.85
2022-08-07T09:01:30.032Z,32.03
2022-08-07T09:04:36.827Z,32.01
2022-08-07T09:07:28.571Z,32.65
2022-08-07T09:10:20.235Z,32.97
2022-08-07T09:12:53.086Z,32.16
2022-08-07T09:16:24.254Z,32.46
2022-08-07T09:18:58.183Z,33.28
2022-08-07T09:22:09.780Z,33.92
2022-08-07T09:25:07.059Z,34.79
2022-08-07T09:28:02.009Z,34.47
2022-08-07T09:30:34.127Z,33.50
2022-08-07T09:33:52.469Z,32.52
2022-08-07T09:36:35.887Z,30.41
2022-08-07T09:39:54.076Z,29.90
2022-08-07T09:42:33.872Z,29.46
2022-08-07T09:47:50.718Z,30.34
2022-08-07T09:48:21.427Z,29.73
2022-08-07T09:50:57.530Z,29.28
2022-08-07T09:53:41.139Z,30.73
2022-08-07T09:56:37.698Z,31.59
2022-08-07T09:59:14.049Z,32.52
2022-08-07T10:02:03.295Z,32.78
2022-08-07T10:04:57.123Z,31.51
2022-08-07T10:07:39.869Z,29.79
2022-08-07T10:10:28.547Z,29.73
2022-08-07T10:13:00.287Z,29.11
2022-08-07T10:15:51.338Z,29.06
2022-08-07T10:18:53.106Z,27.92
2022-08-07T10:22:15.978Z,26.64
2022-08-07T10:25:09.625Z,27.06
2022-08-07T10:28:04.131Z,26.88
2022-08-07T10:30:49.862Z,27.15
2022-08-07T10:33:17.307Z,28.28
2022-08-07T10:36:12.511Z,28.75
2022-08-07T10:38:55.143Z,28.13
2022-08-07T10:41:51.501Z,28.61
2022-08-07T10:44:38.730Z,27.78
2022-08-07T10:47:52.598Z,25.95
2022-08-07T10:50:50.683Z,23.32
2022-08-07T10:53:24.988Z,22.32
2022-08-07T10:56:02.306Z,21.96
2022-08-07T10:59:09.707Z,22.68
2022-08-07T11:01:51.332Z,22.60
2022-08-07T11:05:08.644Z,22.14
2022-08-07T11:08:02.732Z,21.67
2022-08-07T11:10:38.944Z,21.86
2022-08-07T11:14:44.578Z,22.70
2022-08-07T11:16:52.803Z,20.98
2022-08-07T11:19:53.006Z,22.66
2022-08-07T11:22:37.127Z,23.12
2022-08-07T11:25:42.237Z,23.69
2022-08-07T11:28:18.520Z,22.29
2022-08-07T11:31:12.495Z,22.50
2022-08-07T11:34:03.563Z,23.30
2022-08-07T11:37:00.648Z,22.87
2022-08-07T11:40:01.681Z,23.00
2022-08-07T11:42:45.717Z,23.28
2022-08-07T11:45:35.317Z,22.72
2022-08-07T11:48:18.332Z,21.24
2022-08-07T11:51:04.855Z,21.99
2022-08-07T11:54:01.896Z,22.07
2022-08-07T11:56:52.226Z,21.60
2022-08-07T12:00:10.682Z,21.87
2022-08-07T12:02:38.809Z,21.94
2022-08-07T12:05:28.672Z,22.65
2022-08-07T12:08:34.930Z,23.38
2022-08-07T12:11:43.300Z,23.16
2022-08-07T12:14:27.651Z,24.42
2022-08-07T12:17:08.674Z,25.12
2022-08-07T12:20:04.845Z,25.81
2022-08-07T12:22:47.342Z,26.58
2022-08-07T12:26:22.260Z,25.63
2022-08-07T12:28:59.030Z,25.33
2022-08-07T12:31:52.738Z,25.75
2022-08-07T12:34:32.914Z,26.15
2022-08-07T12:37:01.161Z,25.89
2022-08-07T12:39:42.374Z,26.57
2022-08-07T12:42:13.437Z,26.40
2022-08-07T12:44:46.441Z,27.07
2022-08-07T12:47:31.609Z,27.28
2022-08-07T12:50:38.182Z,27.08
2022-08-07T12:53:18.909Z,27.42
2022-08-07T12:56:02.669Z,26.67
2022-08-07T12:58:39.229Z,26.90
2022-08-07T13:01:07.810Z,26.71
2022-08-07T13:04:02.528Z,27.47
2022-08-07T13:07:02.473Z,27.15
2022-08-07T13:10:28.630Z,27.60
2022-08-07T13:13:46.636Z,27.65
2022-08-07T13:16:37.724Z,27.97
2022-08-07T13:19:45.984Z,27.47
2022-08-07T13:22:32.301Z,28.38
2022-08-07T13:25:15.362Z,28.68
2022-08-07T13:28:10.789Z,28.54
2022-08-07T13:30:52.099Z,28.29
2022-08-07T13:34:34.442Z,28.64
2022-08-07T13:37:10.535Z,28.25
2022-08-07T13:40:35.712Z,28.23
2022-08-07T13:43:11.808Z,28.50
2022-08-07T13:46:12.195Z,28.43
2022-08-07T13:48:35.105Z,28.25
2022-08-07T13:51:28.249Z,28.36
2022-08-07T13:54:05.089Z,28.32
2022-08-07T13:56:41.286Z,28.08
2022-08-07T13:59:24.387Z,28.13
2022-08-07T14:02:18.808Z,27.92
2022-08-07T14:05:04.452Z,28.28
2022-08-07T14:07:38.256Z,27.61
2022-08-07T14:10:28.181Z,27.83
2022-08-07T14:13:03.779Z,27.67
2022-08-07T14:15:32.030Z,26.90
2022-08-07T14:18:23.684Z,27.97
2022-08-07T14:21:11.871Z,27.66
2022-08-07T14:24:02.176Z,27.37
2022-08-07T14:26:51.153Z,27.62
2022-08-07T14:30:09.378Z,27.53
2022-08-07T14:32:45.537Z,27.72
2022-08-07T14:35:44.814Z,27.00
2022-08-07T14:38:26.695Z,27.19
2022-08-07T14:41:05.209Z,27.44
2022-08-07T14:43:57.211Z,27.15
2022-08-07T14:46:31.047Z,27.00
2022-08-07T14:49:17.164Z,27.23
2022-08-07T14:52:04.790Z,27.28
2022-08-07T14:57:58.527Z,26.93
2022-08-07T15:00:29.792Z,26.54
2022-08-07T15:06:03.953Z,27.20
2022-08-07T15:08:50.226Z,26.93
2022-08-07T15:14:23.512Z,27.04
2022-08-07T15:17:04.290Z,27.05
2022-08-07T15:20:23.626Z,27.41
2022-08-07T15:22:33.292Z,27.77
2022-08-07T15:25:16.819Z,27.26
2022-08-07T15:31:05.030Z,26.24
2022-08-07T15:37:03.447Z,26.70
2022-08-07T15:39:12.546Z,26.56
2022-08-07T15:42:46.705Z,26.62
2022-08-07T15:44:52.537Z,26.72
2022-08-07T15:47:21.906Z,26.76
2022-08-07T15:53:42.170Z,26.52
2022-08-07T15:56:42.738Z,26.46
2022-08-07T15:59:17.221Z,26.69
2022-08-07T16:02:01.858Z,26.65
2022-08-07T16:04:33.551Z,27.04
2022-08-07T16:07:05.042Z,26.57
2022-08-07T16:09:55.907Z,26.48
2022-08-07T16:13:04.670Z,26.58
2022-08-07T16:15:54.979Z,26.54
2022-08-07T16:18:51.564Z,26.76
2022-08-07T16:22:01.353Z,26.91
2022-08-07T16:24:40.734Z,27.24
2022-08-07T16:27:40.719Z,26.52
2022-08-07T16:30:32.092Z,26.96
2022-08-07T16:34:02.031Z,27.25
2022-08-07T16:36:31.373Z,26.84
2022-08-07T16:39:16.675Z,27.17
2022-08-07T16:42:16.513Z,26.70
2022-08-07T16:45:15.532Z,26.87
2022-08-07T16:48:23.158Z,27.04
2022-08-07T16:52:01.650Z,27.16
2022-08-07T16:54:32.599Z,26.99
2022-08-07T16:57:03.933Z,26.79
2022-08-07T16:59:46.918Z,26.81
2022-08-07T17:02:53.371Z,27.25
2022-08-07T17:06:01.670Z,27.85
2022-08-07T17:09:04.184Z,28.38
2022-08-07T17:12:04.625Z,28.29
2022-08-07T17:14:46.270Z,28.49
2022-08-07T17:17:46.667Z,28.81
2022-08-07T17:20:33.032Z,28.96
2022-08-07T17:23:19.239Z,28.91
2022-08-07T17:26:02.219Z,28.92
2022-08-07T17:28:57.615Z,29.52
2022-08-07T17:32:02.582Z,29.31
2022-08-07T17:35:50.661Z,29.72
2022-08-07T17:38:09.826Z,29.95
2022-08-07T17:40:56.140Z,29.80
2022-08-07T17:44:03.103Z,29.97
2022-08-07T17:46:37.943Z,30.18
2022-08-07T17:49:52.009Z,29.90
2022-08-07T17:52:39.808Z,30.10
2022-08-07T17:55:59.989Z,30.34
2022-08-07T17:58:50.158Z,30.32
2022-08-07T18:01:48.480Z,30.60
2022-08-07T18:04:30.659Z,30.72
2022-08-07T18:07:20.899Z,31.08
2022-08-07T18:10:10.390Z,31.07
2022-08-07T18:13:20.607Z,31.24
2022-08-07T18:16:12.674Z,31.76
2022-08-07T18:21:02.499Z,31.56
2022-08-07T18:21:58.117Z,31.89
2022-08-07T18:24:51.030Z,31.99
2022-08-07T18:27:56.826Z,32.28
2022-08-07T18:30:36.948Z,32.35
2022-08-07T18:33:55.773Z,32.68
2022-08-07T18:37:09.672Z,32.78
2022-08-07T18:40:18.289Z,33.13
2022-08-07T18:43:37.096Z,33.55
2022-08-07T18:46:27.833Z,33.63
2022-08-07T18:50:31.211Z,33.91
2022-08-07T18:52:37.519Z,34.35
2022-08-07T18:55:43.284Z,34.58
2022-08-07T18:58:41.542Z,34.90
2022-08-07T19:02:32.623Z,34.95
2022-08-07T19:05:15.588Z,35.41
2022-08-07T19:07:59.348Z,35.71
2022-08-07T19:10:51.619Z,36.05
2022-08-07T19:13:51.040Z,36.18
2022-08-07T19:17:04.825Z,36.67
2022-08-07T19:19:54.740Z,36.63
2022-08-07T19:22:30.765Z,37.16
2022-08-07T19:25:05.658Z,37.35
2022-08-07T19:28:57.381Z,37.77
2022-08-07T19:31:06.290Z,38.22
2022-08-07T19:33:33.369Z,38.35
2022-08-07T19:36:04.197Z,38.28
2022-08-07T19:38:35.360Z,38.90
2022-08-07T19:41:39.184Z,38.96
2022-08-07T19:44:21.994Z,39.42
2022-08-07T19:46:57.999Z,39.32
2022-08-07T19:49:56.328Z,39.16
2022-08-07T19:52:27.749Z,39.70
2022-08-07T19:54:58.270Z,39.83
2022-08-07T19:58:02.985Z,40.36
2022-08-07T20:00:32.243Z,40.69
2022-08-07T20:03:35.079Z,41.05
2022-08-07T20:06:04.627Z,41.56
2022-08-07T20:08:42.231Z,42.19
2022-08-07T20:11:34.137Z,42.02
2022-08-07T20:14:13.768Z,42.05
2022-08-07T20:16:54.414Z,42.18
2022-08-07T20:19:28.624Z,42.50
2022-08-07T20:22:18.317Z,42.21
2022-08-07T20:25:06.323Z,42.35
2022-08-07T20:27:46.098Z,42.60
2022-08-07T20:30:14.630Z,42.41
2022-08-07T20:32:55.203Z,42.89
2022-08-07T20:35:33.566Z,43.06
2022-08-07T20:38:02.604Z,43.54
2022-08-07T20:40:40.586Z,43.54
2022-08-07T20:43:19.238Z,43.34
2022-08-07T20:46:25.666Z,43.62
2022-08-07T20:49:54.217Z,44.49
2022-08-07T20:51:35.817Z,44.50
2022-08-07T20:54:12.211Z,44.60
2022-08-07T20:56:49.810Z,44.95
2022-08-07T21:00:04.967Z,45.04
2022-08-07T21:02:35.191Z,45.20
2022-08-07T21:05:16.416Z,45.50
2022-08-07T21:07:48.943Z,45.71
2022-08-07T21:10:29.751Z,45.86
2022-08-07T21:13:02.982Z,46.03
2022-08-07T21:15:47.305Z,46.18
2022-08-07T21:18:25.416Z,46.48
2022-08-07T21:21:02.569Z,46.86
2022-08-07T21:23:49.341Z,46.96
2022-08-07T21:26:30.712Z,47.45
2022-08-07T21:29:33.811Z,47.57
2022-08-07T21:32:50.922Z,47.78
2022-08-07T21:35:34.681Z,48.17
2022-08-07T21:38:54.939Z,48.66
2022-08-07T21:41:38.318Z,49.76
2022-08-07T21:46:03.197Z,49.44
2022-08-07T21:48:27.649Z,49.50
2022-08-07T21:51:32.176Z,49.66
2022-08-07T21:54:48.437Z,49.75
2022-08-07T21:57:39.364Z,50.03
2022-08-07T22:00:22.326Z,50.28
2022-08-07T22:03:30.787Z,50.08
2022-08-07T22:06:30.598Z,50.80
2022-08-07T22:09:12.196Z,51.17
2022-08-07T22:12:05.876Z,51.25
2022-08-07T22:15:00.094Z,51.96
2022-08-07T22:17:37.942Z,52.23
2022-08-07T22:20:23.673Z,52.69
2022-08-07T22:23:01.681Z,53.52
2022-08-07T22:25:50.777Z,53.65
2022-08-07T22:28:40.251Z,53.69
2022-08-07T22:31:59.656Z,53.84
2022-08-07T22:34:49.775Z,53.90
2022-08-07T22:38:03.693Z,54.19
2022-08-07T22:40:37.247Z,54.53
2022-08-07T22:43:17.849Z,55.00
2022-08-07T22:46:42.588Z,55.37
2022-08-07T22:49:33.647Z,56.15
2022-08-07T22:52:36.807Z,56.14
2022-08-07T22:55:30.681Z,56.70
2022-08-07T22:58:28.179Z,57.13
2022-08-07T23:01:49.325Z,58.24
2022-08-07T23:04:58.452Z,58.48
2022-08-07T23:07:51.554Z,58.67
2022-08-07T23:10:41.242Z,59.54
2022-08-07T23:13:29.256Z,59.88
2022-08-07T23:16:44.518Z,59.97
2022-08-07T23:19:47.915Z,60.14
2022-08-07T23:22:43.821Z,60.64
2022-08-07T23:25:42.054Z,60.94
2022-08-07T23:28:29.162Z,60.86
2022-08-07T23:32:49.124Z,61.54
2022-08-07T23:34:50.720Z,61.85
2022-08-07T23:37:23.950Z,62.57
2022-08-07T23:40:03.059Z,62.60
2022-08-07T23:42:53.351Z,63.23
2022-08-07T23:46:02.675Z,64.32
2022-08-07T23:48:58.930Z,63.91
2022-08-07T23:53:05.882Z,63.48
2022-08-07T23:54:46.314Z,63.03
2022-08-07T23:57:36.335Z,63.27
